Richmond South's Hourly Summary for Sunday, May 13, 2018
Hour Temp
(f)
RH
(%)
Solar Rad.
(MJ/m2)
Rainfall
(in)
Wind
(mph)
5/13/2018 12:00 AM 75 87 0 0 6.15
5/13/2018 1:00 AM 74 90 0 0 5.17
5/13/2018 2:00 AM 73 90 0 0 1.73
5/13/2018 3:00 AM 72 93 0 0 0
5/13/2018 4:00 AM 72 94 0 0 0
5/13/2018 5:00 AM 72 93 0 0 0.03
5/13/2018 6:00 AM 72 94 0 0 1.29
5/13/2018 7:00 AM 73 94 0.04 0 2.81
5/13/2018 8:00 AM 75 88 0.24 0 3.95
5/13/2018 9:00 AM 78 79 0.69 0 7.57
5/13/2018 10:00 AM 81 66 1.72 0 8.23
5/13/2018 11:00 AM 85 54 2.61 0 8.52
5/13/2018 12:00 PM 87 50 2.51 0 8.05
5/13/2018 1:00 PM 89 44 3.29 0 9.34
5/13/2018 2:00 PM 91 43 3.34 0 9.63
5/13/2018 3:00 PM 91 43 3.23 0 11.35
5/13/2018 4:00 PM 91 44 2.74 0 11.35
5/13/2018 5:00 PM 90 46 2.4 0 12.14
5/13/2018 6:00 PM 89 47 1.75 0 12.51
5/13/2018 7:00 PM 86 53 0.98 0 12.81
5/13/2018 8:00 PM 82 58 0.21 0 10.58
5/13/2018 9:00 PM 79 69 0.01 0 7.42
5/13/2018 10:00 PM 77 77 0 0 7.44
5/13/2018 11:00 PM 76 82 0 0 7.49
Data Summary 80 69 25.76 0.00 6.90